Bangalore, India

8:35 AM IST on August 21, 2014 (GMT +0530)
Pride Orchid | Change Station
CLOSE
Current Station
Personal Weather Station
Location: Bangalore, KARNATAKA
Elevation: 2890 ft
Nearby Weather Stations

Elev 2890 ft 12.95 °N, 77.72 °E | Updated 50 seconds ago

Scattered Clouds
Scattered Clouds
75.5 °F
Feels Like 75 °F
N
1.0
Wind Variable Wind from NNW
Gusts 5.0 mph

Today
High -- | Low -- °F
--% Chance of Precip.
Yesterday
High -- | Low -- °F
Precip. -- in
6:08 AM 6:37 PM
Waning Crescent, 17% visible
Pressure 29.89 in
Visibility 3.7 miles
Clouds Few 1200 ft
Scattered Clouds 8000 ft
Heat Index 75 °F
Dew Point 71 °F
Humidity 87%
Rainfall 0.00 in
Snow Depth Not available.
UV 0.0 out of 12
Pollen Not available.
Air Quality Not available.
Flu Activity Not available.
METAR VOBL 210300Z 29003KT 220V350 6000 FEW012 SCT080 27/25 Q1012 NOSIG

More Conditions Fewer Conditions

Pressure 29.89 in
Visibility 3.7 miles
Clouds Few 1200 ft
Scattered Clouds 8000 ft
Heat Index 75 °F
Dew Point 71 °F
Humidity 87%
Rainfall 0.00 in
Snow Depth Not available.
UV 0.0 out of 12
Pollen Not available.
Air Quality Not available.
Flu Activity Not available.
METAR VOBL 210300Z 29003KT 220V350 6000 FEW012 SCT080 27/25 Q1012 NOSIG

More Conditions Fewer Conditions

10-Day Weather Forecast

Almanac

Astronomy

Aug. 21, 2014 Rise Set
Actual Time 6:08 AM IST 6:37 PM IST
Civil Twilight 5:46 AM IST 6:59 PM IST
Nautical Twilight 5:20 AM IST 7:24 PM IST
Astronomical Twilight 4:55 AM IST 7:50 PM IST
Moon 2:31 AM IST 3:30 PM IST
Length of Visible Light 13h 13m
Length of Day
12h 29m
Tomorrow will be 0m 39s shorter.
Waning Crescent, 17% of the Moon is Illuminated
Aug 20
Waning Crescent
Aug 25
New
Sep 2
First Quarter
Sep 8
Full
Sep 15
Last Quarter

Yesterday's Extremes

Country Highs Country Lows

Community

WunderPhotos

Upload Photos

1,745,842 photos uploaded!

WunderBlogs® & News

By Dr. Jeff Masters
Director of Meteorology, Weather Underground
By Kari Strenfel
Meteorologist, Weather Underground
By Christopher C. Burt
Weather Historian, Weather Underground
August 20, 2014
August 20, 2014
August 20, 2014

Nearby

Snow Depth

Not available.

Earthquake Activity

City Distance Mag. Time & Date
No recent earthquake activity has been reported nearby.
Minimum magnitude displayed is 2.5.

Coastal Water Temperatures

Place Temperature
No Stations Reporting

Nearby Weather Stations